createdAt,value
2019-06-26T00:00:09.120Z,0.00
2019-06-26T00:01:09.093Z,0.00
2019-06-26T00:02:09.074Z,0.00
2019-06-26T00:03:09.067Z,0.00
2019-06-26T00:04:09.058Z,0.00
2019-06-26T00:05:09.050Z,0.00
2019-06-26T00:06:09.086Z,0.00
2019-06-26T00:07:09.041Z,0.00
2019-06-26T00:08:09.025Z,0.00
2019-06-26T00:09:09.018Z,0.00
2019-06-26T00:10:09.009Z,0.00
2019-06-26T00:11:09.006Z,0.00
2019-06-26T00:12:08.993Z,0.00
2019-06-26T00:13:22.076Z,0.00
2019-06-26T00:14:08.986Z,0.00
2019-06-26T00:15:08.983Z,0.00
2019-06-26T00:16:08.967Z,0.00
2019-06-26T00:17:08.954Z,0.00
2019-06-26T00:18:08.950Z,0.00
2019-06-26T00:19:08.938Z,0.00
2019-06-26T00:20:08.926Z,0.00
2019-06-26T00:21:08.921Z,0.00
2019-06-26T00:22:08.916Z,0.00
2019-06-26T00:23:08.911Z,0.00
2019-06-26T00:24:08.896Z,0.00
2019-06-26T00:25:08.889Z,0.00
2019-06-26T00:26:08.887Z,0.00
2019-06-26T00:27:08.872Z,0.00
2019-06-26T00:28:08.874Z,0.00
2019-06-26T00:29:08.868Z,0.00
2019-06-26T00:30:08.849Z,0.00
2019-06-26T00:31:08.848Z,0.00
2019-06-26T00:32:08.833Z,0.00
2019-06-26T00:33:08.830Z,0.00
2019-06-26T00:34:08.821Z,0.00
2019-06-26T00:35:08.808Z,0.00
2019-06-26T00:36:08.804Z,0.00
2019-06-26T00:37:08.791Z,0.00
2019-06-26T00:38:08.786Z,0.00
2019-06-26T00:39:08.775Z,0.00
2019-06-26T00:40:08.768Z,0.00
2019-06-26T00:41:08.760Z,0.00
2019-06-26T00:42:08.756Z,0.00
2019-06-26T00:43:08.743Z,0.00
2019-06-26T00:44:08.739Z,0.00
2019-06-26T00:45:08.728Z,0.00
2019-06-26T00:46:08.720Z,0.00
2019-06-26T00:47:08.710Z,0.00
2019-06-26T00:48:08.704Z,0.00
2019-06-26T00:49:08.698Z,0.00
2019-06-26T00:50:08.687Z,0.00
2019-06-26T00:51:08.680Z,0.00
2019-06-26T00:52:08.673Z,0.00
2019-06-26T00:53:08.666Z,0.00
2019-06-26T00:54:08.656Z,0.00
2019-06-26T00:55:08.645Z,0.00
2019-06-26T00:56:08.639Z,0.00
2019-06-26T00:57:08.634Z,0.00
2019-06-26T00:58:08.622Z,0.00
2019-06-26T00:59:08.620Z,0.00
2019-06-26T01:00:08.608Z,0.00
2019-06-26T01:01:08.597Z,0.00
2019-06-26T01:02:08.591Z,0.00
2019-06-26T01:03:08.581Z,0.00
2019-06-26T01:04:08.576Z,0.00
2019-06-26T01:05:08.580Z,0.00
2019-06-26T01:06:08.556Z,0.00
2019-06-26T01:07:08.551Z,0.00
2019-06-26T01:08:08.550Z,0.00
2019-06-26T01:09:08.534Z,0.00
2019-06-26T01:10:08.523Z,0.00
2019-06-26T01:11:08.518Z,0.00
2019-06-26T01:12:08.503Z,0.00
2019-06-26T01:13:08.495Z,0.00
2019-06-26T01:14:08.488Z,0.00
2019-06-26T01:15:08.495Z,0.00
2019-06-26T01:16:08.469Z,0.00
2019-06-26T01:17:08.472Z,0.00
2019-06-26T01:18:08.501Z,0.00
2019-06-26T01:19:08.453Z,0.00
2019-06-26T01:20:08.437Z,0.00
2019-06-26T01:21:08.433Z,0.00
2019-06-26T01:22:08.422Z,0.00
2019-06-26T01:23:08.414Z,0.00
2019-06-26T01:24:08.409Z,0.00
2019-06-26T01:25:08.393Z,0.00
2019-06-26T01:26:08.392Z,0.00
2019-06-26T01:27:08.382Z,0.00
2019-06-26T01:28:08.367Z,0.00
2019-06-26T01:29:08.361Z,0.00
2019-06-26T01:30:08.367Z,0.00
2019-06-26T01:31:08.342Z,0.00
2019-06-26T01:32:08.334Z,0.00
2019-06-26T01:33:08.326Z,0.00
2019-06-26T01:34:08.320Z,0.00
2019-06-26T01:35:08.322Z,0.00
2019-06-26T01:36:08.305Z,0.00
2019-06-26T01:37:08.294Z,0.00
2019-06-26T01:38:08.291Z,0.00
2019-06-26T01:39:08.277Z,0.00
2019-06-26T01:40:08.275Z,0.00
2019-06-26T01:41:08.260Z,0.00
2019-06-26T01:42:08.254Z,0.00
2019-06-26T01:43:08.248Z,0.00
2019-06-26T01:44:14.997Z,0.00
2019-06-26T01:45:08.226Z,0.00
2019-06-26T01:46:08.216Z,0.00
2019-06-26T01:47:08.208Z,0.00
2019-06-26T01:48:08.214Z,0.00
2019-06-26T01:49:08.193Z,0.00
2019-06-26T01:50:08.182Z,0.00
2019-06-26T01:51:08.175Z,0.00
2019-06-26T01:52:08.165Z,0.00
2019-06-26T01:53:08.157Z,0.00
2019-06-26T01:54:08.148Z,0.00
2019-06-26T01:55:08.142Z,0.00
2019-06-26T01:56:08.131Z,0.00
2019-06-26T01:57:08.121Z,0.00
2019-06-26T01:58:08.113Z,0.00
2019-06-26T01:59:08.107Z,0.00
2019-06-26T02:00:08.153Z,0.00
2019-06-26T02:01:08.090Z,0.00
2019-06-26T02:02:08.080Z,0.00
2019-06-26T02:03:08.069Z,0.00
2019-06-26T02:04:08.064Z,0.00
2019-06-26T02:05:08.057Z,0.00
2019-06-26T02:06:08.046Z,0.00
2019-06-26T02:07:08.044Z,0.00
2019-06-26T02:08:08.034Z,0.00
2019-06-26T02:09:08.031Z,0.00
2019-06-26T02:10:08.119Z,0.00
2019-06-26T02:11:08.002Z,0.00
2019-06-26T02:12:08.010Z,0.00
2019-06-26T02:13:07.989Z,0.00
2019-06-26T02:14:07.978Z,0.00
2019-06-26T02:15:07.986Z,0.00
2019-06-26T02:16:07.956Z,0.00
2019-06-26T02:17:07.956Z,0.00
2019-06-26T02:18:07.943Z,0.00
2019-06-26T02:19:07.980Z,0.00
2019-06-26T02:20:07.932Z,0.00
2019-06-26T02:21:07.910Z,0.00
2019-06-26T02:22:07.904Z,0.00
2019-06-26T02:23:07.895Z,0.00
2019-06-26T02:24:07.892Z,0.00
2019-06-26T02:25:07.878Z,0.00
2019-06-26T02:26:07.870Z,0.00
2019-06-26T02:27:07.859Z,0.00
2019-06-26T02:28:07.857Z,0.00
2019-06-26T02:29:07.854Z,0.00
2019-06-26T02:30:07.854Z,0.00
2019-06-26T02:31:07.826Z,0.00
2019-06-26T02:32:07.819Z,0.00
2019-06-26T02:33:07.808Z,0.00
2019-06-26T02:34:07.809Z,0.00
2019-06-26T02:35:10.254Z,0.00
2019-06-26T02:36:07.784Z,0.00
2019-06-26T02:37:07.778Z,0.00
2019-06-26T02:38:07.764Z,0.00
2019-06-26T02:39:07.776Z,0.00
2019-06-26T02:40:07.745Z,0.00
2019-06-26T02:41:07.739Z,0.00
2019-06-26T02:42:07.726Z,0.00
2019-06-26T02:43:07.724Z,0.00
2019-06-26T02:44:07.713Z,0.00
2019-06-26T02:45:07.719Z,0.00
2019-06-26T02:46:07.699Z,0.00
2019-06-26T02:47:19.622Z,0.00
2019-06-26T02:48:07.676Z,0.00
2019-06-26T02:49:07.669Z,0.00
2019-06-26T02:50:07.658Z,0.00
2019-06-26T02:51:07.665Z,0.00
2019-06-26T02:52:07.646Z,0.00
2019-06-26T02:53:07.650Z,0.00
2019-06-26T02:54:07.633Z,0.00
2019-06-26T02:55:07.640Z,0.00
2019-06-26T02:56:07.613Z,0.00
2019-06-26T02:57:07.621Z,0.00
2019-06-26T02:58:07.595Z,0.00
2019-06-26T02:59:07.581Z,0.00
2019-06-26T03:00:07.585Z,0.00
2019-06-26T03:01:07.566Z,0.00
2019-06-26T03:02:07.553Z,0.00
2019-06-26T03:03:07.544Z,0.00
2019-06-26T03:04:07.537Z,0.00
2019-06-26T03:05:07.530Z,0.00
2019-06-26T03:06:07.524Z,0.00
2019-06-26T03:07:07.511Z,0.00
2019-06-26T03:08:07.498Z,0.00
2019-06-26T03:09:07.492Z,0.00
2019-06-26T03:10:07.481Z,0.00
2019-06-26T03:11:07.468Z,0.00
2019-06-26T03:12:07.506Z,0.00
2019-06-26T03:13:07.452Z,0.00
2019-06-26T03:14:07.446Z,0.00
2019-06-26T03:15:09.270Z,0.00
2019-06-26T03:16:07.425Z,0.00
2019-06-26T03:17:07.420Z,0.00
2019-06-26T03:18:07.411Z,0.00
2019-06-26T03:19:07.398Z,0.00
2019-06-26T03:20:07.398Z,0.00
2019-06-26T03:21:07.387Z,0.00
2019-06-26T03:22:07.374Z,0.00
2019-06-26T03:23:07.362Z,0.00
2019-06-26T03:24:07.357Z,0.00
2019-06-26T03:25:07.352Z,5.63
2019-06-26T03:26:07.334Z,5.63
2019-06-26T03:27:09.088Z,5.63
2019-06-26T03:28:07.321Z,5.63
2019-06-26T03:29:07.317Z,5.63
2019-06-26T03:30:07.381Z,5.63
2019-06-26T03:31:07.295Z,5.63
2019-06-26T03:32:07.300Z,5.63
2019-06-26T03:33:07.274Z,5.63
2019-06-26T03:34:07.269Z,5.63
2019-06-26T03:35:07.260Z,5.63
2019-06-26T03:36:07.256Z,5.63
2019-06-26T03:37:07.261Z,5.63
2019-06-26T03:38:07.228Z,5.63
2019-06-26T03:39:07.222Z,5.63
2019-06-26T03:40:07.211Z,5.63
2019-06-26T03:41:07.201Z,11.25
2019-06-26T03:42:07.197Z,11.25
2019-06-26T03:43:07.181Z,11.25
2019-06-26T03:44:07.173Z,11.25
2019-06-26T03:45:07.176Z,11.25
2019-06-26T03:46:07.155Z,11.25
2019-06-26T03:47:07.151Z,11.25
2019-06-26T03:48:07.144Z,11.25
2019-06-26T03:49:07.134Z,11.25
2019-06-26T03:50:07.119Z,11.25
2019-06-26T03:51:07.110Z,11.25
2019-06-26T03:52:07.107Z,11.25
2019-06-26T03:53:07.119Z,16.88
2019-06-26T03:54:07.088Z,16.88
2019-06-26T03:55:07.074Z,16.88
2019-06-26T03:56:07.067Z,16.88
2019-06-26T03:57:07.058Z,16.88
2019-06-26T03:58:07.051Z,16.88
2019-06-26T03:59:07.039Z,16.88
2019-06-26T04:00:07.029Z,16.88
2019-06-26T04:01:07.031Z,16.88
2019-06-26T04:02:07.058Z,16.88
2019-06-26T04:03:07.000Z,22.50
2019-06-26T04:04:07.007Z,22.50
2019-06-26T04:05:06.985Z,22.50
2019-06-26T04:06:06.978Z,22.50
2019-06-26T04:07:06.965Z,22.50
2019-06-26T04:08:06.956Z,22.50
2019-06-26T04:09:06.948Z,22.50
2019-06-26T04:10:06.944Z,22.50
2019-06-26T04:11:06.938Z,22.50
2019-06-26T04:12:06.922Z,28.13
2019-06-26T04:13:06.914Z,28.13
2019-06-26T04:14:06.907Z,28.13
2019-06-26T04:15:06.898Z,28.13
2019-06-26T04:16:06.885Z,28.13
2019-06-26T04:17:06.877Z,28.13
2019-06-26T04:18:06.873Z,28.13
2019-06-26T04:19:06.861Z,28.13
2019-06-26T04:20:06.847Z,33.75
2019-06-26T04:21:06.842Z,33.75
2019-06-26T04:22:06.867Z,33.75
2019-06-26T04:23:06.822Z,33.75
2019-06-26T04:24:06.821Z,33.75
2019-06-26T04:25:06.813Z,33.75
2019-06-26T04:26:06.796Z,33.75
2019-06-26T04:27:06.786Z,33.75
2019-06-26T04:28:06.777Z,33.75
2019-06-26T04:29:06.770Z,39.38
2019-06-26T04:30:06.769Z,39.38
2019-06-26T04:31:06.755Z,39.38
2019-06-26T04:32:06.743Z,39.38
2019-06-26T04:33:06.732Z,39.38
2019-06-26T04:34:06.725Z,39.38
2019-06-26T04:35:06.711Z,39.38
2019-06-26T04:36:06.722Z,45.00
2019-06-26T04:37:06.694Z,45.00
2019-06-26T04:38:06.684Z,45.00
2019-06-26T04:39:06.675Z,45.00
2019-06-26T04:40:06.666Z,45.00
2019-06-26T04:41:06.657Z,45.00
2019-06-26T04:42:06.653Z,45.00
2019-06-26T04:43:06.643Z,45.00
2019-06-26T04:44:06.641Z,50.63
2019-06-26T04:45:06.621Z,50.63
2019-06-26T04:46:06.616Z,50.63
2019-06-26T04:47:06.602Z,50.63
2019-06-26T04:48:07.425Z,50.63
2019-06-26T04:49:06.590Z,50.63
2019-06-26T04:50:06.583Z,50.63
2019-06-26T04:51:06.566Z,56.25
2019-06-26T04:52:06.563Z,56.25
2019-06-26T04:53:06.617Z,56.25
2019-06-26T04:54:06.543Z,56.25
2019-06-26T04:55:06.539Z,56.25
2019-06-26T04:56:06.521Z,56.25
2019-06-26T04:57:06.512Z,56.25
2019-06-26T04:58:06.506Z,5.63
2019-06-26T04:59:06.493Z,5.63
2019-06-26T05:00:06.485Z,5.63
2019-06-26T05:01:06.487Z,5.63
2019-06-26T05:02:06.486Z,5.63
2019-06-26T05:03:06.456Z,5.63
2019-06-26T05:04:06.460Z,5.63
2019-06-26T05:05:06.443Z,5.63
2019-06-26T05:06:06.430Z,5.63
2019-06-26T05:07:06.430Z,5.63
2019-06-26T05:08:06.429Z,5.63
2019-06-26T05:09:06.416Z,5.63
2019-06-26T05:10:06.392Z,5.63
2019-06-26T05:11:06.389Z,11.25
2019-06-26T05:12:06.376Z,11.25
2019-06-26T05:13:06.370Z,11.25
2019-06-26T05:14:06.358Z,11.25
2019-06-26T05:15:06.356Z,11.25
2019-06-26T05:16:15.104Z,11.25
2019-06-26T05:17:06.357Z,11.25
2019-06-26T05:18:06.321Z,11.25
2019-06-26T05:19:06.310Z,11.25
2019-06-26T05:20:06.305Z,11.25
2019-06-26T05:21:06.300Z,11.25
2019-06-26T05:22:06.285Z,11.25
2019-06-26T05:23:06.274Z,11.25
2019-06-26T05:24:06.273Z,11.25
2019-06-26T05:25:06.260Z,11.25
2019-06-26T05:26:06.272Z,11.25
2019-06-26T05:27:06.240Z,11.25
2019-06-26T05:28:08.387Z,11.25
2019-06-26T05:29:06.225Z,11.25
2019-06-26T05:30:06.217Z,11.25
2019-06-26T05:31:06.201Z,11.25
2019-06-26T05:32:06.195Z,11.25
2019-06-26T05:33:06.186Z,11.25
2019-06-26T05:34:06.176Z,11.25
2019-06-26T05:35:06.169Z,11.25
2019-06-26T05:36:06.157Z,11.25
2019-06-26T05:37:06.152Z,11.25
2019-06-26T05:38:06.140Z,11.25
2019-06-26T05:39:06.131Z,11.25
2019-06-26T05:40:06.119Z,11.25
2019-06-26T05:41:06.112Z,11.25
2019-06-26T05:42:06.908Z,11.25
2019-06-26T05:43:06.155Z,11.25
2019-06-26T05:44:06.093Z,11.25
2019-06-26T05:45:06.082Z,11.25
2019-06-26T05:46:06.064Z,16.88
2019-06-26T05:47:07.250Z,11.25
2019-06-26T05:48:06.048Z,16.88
2019-06-26T05:49:06.038Z,16.88
2019-06-26T05:50:06.031Z,16.88
2019-06-26T05:51:06.027Z,16.88
2019-06-26T05:52:06.012Z,16.88
2019-06-26T05:53:06.002Z,16.88
2019-06-26T05:54:05.995Z,16.88
2019-06-26T05:55:05.987Z,16.88
2019-06-26T05:56:05.979Z,16.88
2019-06-26T05:57:05.969Z,16.88
2019-06-26T05:58:05.956Z,16.88
2019-06-26T05:59:05.962Z,16.88
2019-06-26T06:00:05.937Z,16.88
2019-06-26T06:01:05.929Z,16.88
2019-06-26T06:02:05.926Z,16.88
2019-06-26T06:03:05.922Z,16.88
2019-06-26T06:04:05.904Z,16.88
2019-06-26T06:05:05.903Z,16.88
2019-06-26T06:06:05.898Z,16.88
2019-06-26T06:07:05.873Z,16.88
2019-06-26T06:08:05.876Z,16.88
2019-06-26T06:09:05.859Z,16.88
2019-06-26T06:10:05.872Z,16.88
2019-06-26T06:11:05.836Z,16.88
2019-06-26T06:12:05.839Z,16.88
2019-06-26T06:13:05.822Z,16.88
2019-06-26T06:14:05.814Z,16.88
2019-06-26T06:15:05.803Z,16.88
2019-06-26T06:16:06.583Z,16.88
2019-06-26T06:17:05.785Z,16.88
2019-06-26T06:18:05.781Z,16.88
2019-06-26T06:19:05.770Z,16.88
2019-06-26T06:20:05.758Z,16.88
2019-06-26T06:21:05.749Z,16.88
2019-06-26T06:22:05.740Z,16.88
2019-06-26T06:23:05.729Z,16.88
2019-06-26T06:24:05.719Z,16.88
2019-06-26T06:25:05.721Z,16.88
2019-06-26T06:26:05.706Z,16.88
2019-06-26T06:27:05.702Z,16.88
2019-06-26T06:28:05.695Z,16.88
2019-06-26T06:29:05.675Z,16.88
2019-06-26T06:30:05.708Z,16.88
2019-06-26T06:31:05.659Z,16.88
2019-06-26T06:32:05.649Z,22.50
2019-06-26T06:33:05.640Z,22.50
2019-06-26T06:34:05.634Z,22.50
2019-06-26T06:35:05.621Z,22.50
2019-06-26T06:36:08.788Z,22.50
2019-06-26T06:37:05.611Z,22.50
2019-06-26T06:38:05.622Z,22.50
2019-06-26T06:39:05.591Z,22.50
2019-06-26T06:40:05.581Z,22.50
2019-06-26T06:41:05.571Z,22.50
2019-06-26T06:42:05.565Z,22.50
2019-06-26T06:43:05.548Z,22.50
2019-06-26T06:44:05.541Z,22.50
2019-06-26T06:45:05.531Z,22.50
2019-06-26T06:46:05.543Z,22.50
2019-06-26T06:47:08.769Z,22.50
2019-06-26T06:48:05.506Z,22.50
2019-06-26T06:49:05.497Z,28.13
2019-06-26T06:50:05.490Z,28.13
2019-06-26T06:51:05.487Z,28.13
2019-06-26T06:52:05.472Z,28.13
2019-06-26T06:53:05.471Z,28.13
2019-06-26T06:54:05.451Z,28.13
2019-06-26T06:55:05.448Z,28.13
2019-06-26T06:56:05.435Z,28.13
2019-06-26T06:57:05.434Z,28.13
2019-06-26T06:58:05.486Z,28.13
2019-06-26T06:59:05.411Z,28.13
2019-06-26T07:00:05.401Z,28.13
2019-06-26T07:01:05.395Z,28.13
2019-06-26T07:02:05.383Z,28.13
2019-06-26T07:03:05.375Z,28.13
2019-06-26T07:04:05.366Z,28.13
2019-06-26T07:05:05.360Z,28.13
2019-06-26T07:06:05.352Z,28.13
2019-06-26T07:07:05.349Z,28.13
2019-06-26T07:08:05.340Z,28.13
2019-06-26T07:09:05.332Z,28.13
2019-06-26T07:10:05.327Z,28.13
2019-06-26T07:11:05.307Z,28.13
2019-06-26T07:12:05.299Z,28.13
2019-06-26T07:13:05.293Z,28.13
2019-06-26T07:14:05.343Z,28.13
2019-06-26T07:15:05.278Z,28.13
2019-06-26T07:16:05.265Z,28.13
2019-06-26T07:17:19.234Z,28.13
2019-06-26T07:18:05.249Z,28.13
2019-06-26T07:19:05.246Z,28.13
2019-06-26T07:20:05.240Z,28.13
2019-06-26T07:21:05.229Z,28.13
2019-06-26T07:22:07.347Z,28.13
2019-06-26T07:23:05.209Z,28.13
2019-06-26T07:24:05.202Z,28.13
2019-06-26T07:25:05.195Z,28.13
2019-06-26T07:26:05.184Z,33.75
2019-06-26T07:27:05.174Z,33.75
2019-06-26T07:28:05.177Z,33.75
2019-06-26T07:29:05.160Z,33.75
2019-06-26T07:30:05.161Z,33.75
2019-06-26T07:31:05.141Z,33.75
2019-06-26T07:32:05.140Z,33.75
2019-06-26T07:33:05.125Z,33.75
2019-06-26T07:34:05.118Z,33.75
2019-06-26T07:35:05.122Z,33.75
2019-06-26T07:36:05.108Z,33.75
2019-06-26T07:37:05.092Z,33.75
2019-06-26T07:38:05.082Z,33.75
2019-06-26T07:39:05.078Z,33.75
2019-06-26T07:40:05.076Z,33.75
2019-06-26T07:41:05.059Z,33.75
2019-06-26T07:42:05.077Z,33.75
2019-06-26T07:43:05.040Z,33.75
2019-06-26T07:44:05.041Z,33.75
2019-06-26T07:45:05.026Z,39.38
2019-06-26T07:46:05.021Z,39.38
2019-06-26T07:47:12.727Z,39.38
2019-06-26T07:48:05.009Z,39.38
2019-06-26T07:49:04.993Z,39.38
2019-06-26T07:50:05.004Z,39.38
2019-06-26T07:51:04.976Z,39.38
2019-06-26T07:52:04.973Z,39.38
2019-06-26T07:53:04.965Z,39.38
2019-06-26T07:54:04.959Z,39.38
2019-06-26T07:55:04.943Z,39.38
2019-06-26T07:56:04.939Z,39.38
2019-06-26T07:57:04.929Z,39.38
2019-06-26T07:58:04.924Z,39.38
2019-06-26T07:59:04.912Z,39.38
2019-06-26T08:00:04.913Z,39.38
2019-06-26T08:01:04.901Z,39.38
2019-06-26T08:02:04.908Z,39.38
2019-06-26T08:03:04.939Z,39.38
2019-06-26T08:04:04.877Z,39.38
2019-06-26T08:05:04.874Z,39.38
2019-06-26T08:06:04.860Z,45.00
2019-06-26T08:07:04.853Z,45.00
2019-06-26T08:08:04.852Z,45.00
2019-06-26T08:09:04.839Z,45.00
2019-06-26T08:10:04.833Z,45.00
2019-06-26T08:11:06.542Z,45.00
2019-06-26T08:12:04.822Z,45.00
2019-06-26T08:13:04.810Z,45.00
2019-06-26T08:14:04.808Z,45.00
2019-06-26T08:15:04.788Z,45.00
2019-06-26T08:16:04.783Z,45.00
2019-06-26T08:17:04.775Z,45.00
2019-06-26T08:18:04.767Z,45.00
2019-06-26T08:19:04.759Z,45.00
2019-06-26T08:20:04.753Z,45.00
2019-06-26T08:21:12.324Z,45.00
2019-06-26T08:22:04.742Z,45.00
2019-06-26T08:23:04.740Z,45.00
2019-06-26T08:24:04.722Z,39.38
2019-06-26T08:25:04.722Z,39.38
2019-06-26T08:26:04.719Z,39.38
2019-06-26T08:27:04.712Z,45.00
2019-06-26T08:28:04.698Z,45.00
2019-06-26T08:29:04.705Z,45.00
2019-06-26T08:30:04.679Z,45.00
2019-06-26T08:31:04.669Z,45.00
2019-06-26T08:32:04.684Z,45.00
2019-06-26T08:33:04.662Z,45.00
2019-06-26T08:34:04.650Z,45.00
2019-06-26T08:35:04.645Z,39.38
2019-06-26T08:36:04.637Z,45.00
2019-06-26T08:37:04.632Z,45.00
2019-06-26T08:38:12.544Z,45.00
2019-06-26T08:39:04.622Z,45.00
2019-06-26T08:40:04.605Z,45.00
2019-06-26T08:41:04.604Z,45.00
2019-06-26T08:42:04.594Z,45.00
2019-06-26T08:43:04.585Z,45.00
2019-06-26T08:44:04.579Z,45.00
2019-06-26T08:45:04.653Z,45.00
2019-06-26T08:46:04.562Z,45.00
2019-06-26T08:47:04.558Z,45.00
2019-06-26T08:48:17.466Z,45.00
2019-06-26T08:49:04.542Z,45.00
2019-06-26T08:50:04.535Z,45.00
2019-06-26T08:51:04.539Z,50.63
2019-06-26T08:52:04.531Z,45.00
2019-06-26T08:53:04.513Z,45.00
2019-06-26T08:54:04.968Z,50.63
2019-06-26T08:55:04.501Z,45.00
2019-06-26T08:56:04.515Z,50.63
2019-06-26T08:57:04.507Z,50.63
2019-06-26T08:58:04.488Z,50.63
2019-06-26T08:59:04.470Z,50.63
2019-06-26T09:00:04.467Z,50.63
2019-06-26T09:01:04.459Z,50.63
2019-06-26T09:02:04.455Z,50.63
2019-06-26T09:03:04.471Z,50.63
2019-06-26T09:04:04.439Z,50.63
2019-06-26T09:05:04.604Z,50.63
2019-06-26T09:06:04.423Z,50.63
2019-06-26T09:07:04.428Z,50.63
2019-06-26T09:08:04.559Z,50.63
2019-06-26T09:09:04.404Z,50.63
2019-06-26T09:10:04.402Z,50.63
2019-06-26T09:11:04.401Z,50.63
2019-06-26T09:12:04.383Z,50.63
2019-06-26T09:13:04.415Z,50.63
2019-06-26T09:14:04.375Z,56.25
2019-06-26T09:15:04.366Z,56.25
2019-06-26T09:16:04.357Z,56.25
2019-06-26T09:17:04.353Z,50.63
2019-06-26T09:18:04.345Z,50.63
2019-06-26T09:19:04.336Z,50.63
2019-06-26T09:20:04.331Z,56.25
2019-06-26T09:21:04.377Z,56.25
2019-06-26T09:22:04.316Z,56.25
2019-06-26T09:23:04.314Z,56.25
2019-06-26T09:24:04.311Z,56.25
2019-06-26T09:25:20.351Z,56.25
2019-06-26T09:26:04.291Z,56.25
2019-06-26T09:27:04.286Z,56.25
2019-06-26T09:28:04.276Z,56.25
2019-06-26T09:29:04.288Z,56.25
2019-06-26T09:30:04.268Z,56.25
2019-06-26T09:31:04.265Z,56.25
2019-06-26T09:32:04.251Z,61.88
2019-06-26T09:33:04.245Z,56.25
2019-06-26T09:34:04.244Z,56.25
2019-06-26T09:35:04.236Z,56.25
2019-06-26T09:36:06.801Z,56.25
2019-06-26T09:37:04.224Z,61.88
2019-06-26T09:38:04.221Z,56.25
2019-06-26T09:39:04.218Z,61.88
2019-06-26T09:40:04.259Z,61.88
2019-06-26T09:41:04.228Z,56.25
2019-06-26T09:42:04.191Z,56.25
2019-06-26T09:43:04.188Z,56.25
2019-06-26T09:44:04.184Z,56.25
2019-06-26T09:45:04.174Z,56.25
2019-06-26T09:46:04.167Z,56.25
2019-06-26T09:47:04.166Z,56.25
2019-06-26T09:48:04.153Z,61.88
2019-06-26T09:49:04.156Z,56.25
2019-06-26T09:50:04.140Z,56.25
2019-06-26T09:51:04.142Z,56.25
2019-06-26T09:52:04.131Z,61.88
2019-06-26T09:53:05.309Z,56.25
2019-06-26T09:54:04.121Z,56.25
2019-06-26T09:55:04.112Z,61.88
2019-06-26T09:56:04.109Z,56.25
2019-06-26T09:57:04.100Z,56.25
2019-06-26T09:58:04.097Z,56.25
2019-06-26T09:59:04.094Z,56.25
2019-06-26T10:00:04.085Z,56.25
2019-06-26T10:01:04.081Z,56.25
2019-06-26T10:02:04.077Z,61.88
2019-06-26T10:03:04.077Z,61.88
2019-06-26T10:04:04.060Z,61.88
2019-06-26T10:05:04.056Z,61.88
2019-06-26T10:06:04.049Z,56.25
2019-06-26T10:07:04.081Z,61.88
2019-06-26T10:08:04.037Z,67.50
2019-06-26T10:09:04.080Z,67.50
2019-06-26T10:10:04.027Z,67.50
2019-06-26T10:11:04.026Z,67.50
2019-06-26T10:12:04.033Z,73.13
2019-06-26T10:13:04.022Z,73.13
2019-06-26T10:14:04.006Z,67.50
2019-06-26T10:15:04.000Z,73.13
2019-06-26T10:16:04.001Z,67.50
2019-06-26T10:17:04.050Z,73.13
2019-06-26T10:18:04.025Z,73.13
2019-06-26T10:19:10.011Z,73.13
2019-06-26T10:20:03.985Z,78.75
2019-06-26T10:21:03.977Z,73.13
2019-06-26T10:22:03.975Z,78.75
2019-06-26T10:23:03.964Z,73.13
2019-06-26T10:24:03.956Z,78.75
2019-06-26T10:25:03.959Z,73.13
2019-06-26T10:26:03.951Z,78.75
2019-06-26T10:27:03.943Z,78.75
2019-06-26T10:28:03.962Z,84.38
2019-06-26T10:29:03.979Z,78.75
2019-06-26T10:30:03.932Z,73.13
2019-06-26T10:31:03.937Z,78.75
2019-06-26T10:32:03.931Z,61.88
2019-06-26T10:33:03.926Z,61.88
2019-06-26T10:34:03.914Z,73.13
2019-06-26T10:35:03.921Z,73.13
2019-06-26T10:36:03.904Z,61.88
2019-06-26T10:37:03.899Z,61.88
2019-06-26T10:38:03.896Z,61.88
2019-06-26T10:39:03.898Z,61.88
2019-06-26T10:40:03.900Z,61.88
2019-06-26T10:41:03.883Z,61.88
2019-06-26T10:42:03.882Z,61.88
2019-06-26T10:43:03.874Z,61.88
2019-06-26T10:44:03.864Z,61.88
2019-06-26T10:45:03.864Z,61.88
2019-06-26T10:46:03.866Z,61.88
2019-06-26T10:47:03.854Z,61.88
2019-06-26T10:48:03.846Z,61.88
2019-06-26T10:49:03.845Z,61.88
2019-06-26T10:50:03.844Z,61.88
2019-06-26T10:51:03.838Z,61.88
2019-06-26T10:52:03.826Z,61.88
2019-06-26T10:53:03.822Z,61.88
2019-06-26T10:54:03.822Z,61.88
2019-06-26T10:55:03.976Z,67.50
2019-06-26T10:56:03.810Z,61.88
2019-06-26T10:57:03.808Z,61.88
2019-06-26T10:58:03.801Z,67.50
2019-06-26T10:59:03.836Z,61.88
2019-06-26T11:00:03.790Z,61.88
2019-06-26T11:01:03.783Z,67.50
2019-06-26T11:02:03.780Z,67.50
2019-06-26T11:03:03.782Z,67.50
2019-06-26T11:04:03.767Z,67.50
2019-06-26T11:05:03.784Z,61.88
2019-06-26T11:06:03.785Z,61.88
2019-06-26T11:07:03.761Z,61.88
2019-06-26T11:08:03.757Z,61.88
2019-06-26T11:09:03.759Z,61.88
2019-06-26T11:10:03.736Z,61.88
2019-06-26T11:11:03.736Z,61.88
2019-06-26T11:12:03.727Z,61.88
2019-06-26T11:13:03.736Z,61.88
2019-06-26T11:14:03.718Z,67.50
2019-06-26T11:15:03.714Z,67.50
2019-06-26T11:16:03.729Z,73.13
2019-06-26T11:17:03.704Z,67.50
2019-06-26T11:18:03.696Z,61.88
2019-06-26T11:19:03.694Z,61.88
2019-06-26T11:20:03.692Z,67.50
2019-06-26T11:21:03.697Z,67.50
2019-06-26T11:22:03.677Z,73.13
2019-06-26T11:23:03.679Z,61.88
2019-06-26T11:24:03.671Z,67.50
2019-06-26T11:25:03.659Z,67.50
2019-06-26T11:26:03.661Z,67.50
2019-06-26T11:27:03.647Z,61.88
2019-06-26T11:28:03.645Z,67.50
2019-06-26T11:29:03.639Z,67.50
2019-06-26T11:30:03.766Z,61.88
2019-06-26T11:31:03.633Z,61.88
2019-06-26T11:32:03.624Z,61.88
2019-06-26T11:33:03.619Z,67.50
2019-06-26T11:34:03.634Z,67.50
2019-06-26T11:35:03.628Z,61.88
2019-06-26T11:36:03.605Z,67.50
2019-06-26T11:37:04.636Z,67.50
2019-06-26T11:38:03.610Z,61.88
2019-06-26T11:39:03.587Z,67.50
2019-06-26T11:40:03.584Z,67.50
2019-06-26T11:41:03.577Z,61.88
2019-06-26T11:42:03.587Z,67.50
2019-06-26T11:43:03.569Z,67.50
2019-06-26T11:44:03.575Z,67.50
2019-06-26T11:45:03.559Z,67.50
2019-06-26T11:46:03.552Z,67.50
2019-06-26T11:47:03.573Z,67.50
2019-06-26T11:48:03.541Z,67.50
2019-06-26T11:49:03.537Z,67.50
2019-06-26T11:50:03.534Z,67.50
2019-06-26T11:51:03.530Z,61.88
2019-06-26T11:52:03.525Z,67.50
2019-06-26T11:53:03.518Z,61.88
2019-06-26T11:54:03.540Z,67.50
2019-06-26T11:55:03.999Z,67.50
2019-06-26T11:56:03.509Z,67.50
2019-06-26T11:57:03.512Z,61.88
2019-06-26T11:58:03.497Z,67.50
2019-06-26T11:59:03.489Z,61.88
2019-06-26T12:00:03.497Z,61.88
2019-06-26T12:01:03.491Z,61.88
2019-06-26T12:02:03.477Z,67.50
2019-06-26T12:03:03.487Z,67.50
2019-06-26T12:04:03.469Z,67.50
2019-06-26T12:05:03.462Z,67.50
2019-06-26T12:06:17.947Z,61.88
2019-06-26T12:07:03.491Z,61.88
2019-06-26T12:08:03.444Z,61.88
2019-06-26T12:09:03.445Z,67.50
2019-06-26T12:10:03.520Z,67.50
2019-06-26T12:11:03.437Z,61.88
2019-06-26T12:12:03.432Z,61.88
2019-06-26T12:13:04.367Z,61.88
2019-06-26T12:14:03.460Z,61.88
2019-06-26T12:15:03.415Z,61.88
2019-06-26T12:16:03.409Z,61.88
2019-06-26T12:17:03.424Z,61.88
2019-06-26T12:18:03.418Z,61.88
2019-06-26T12:19:03.415Z,61.88
2019-06-26T12:20:17.657Z,61.88
2019-06-26T12:21:03.386Z,67.50
2019-06-26T12:22:03.394Z,61.88
2019-06-26T12:23:03.380Z,61.88
2019-06-26T12:24:03.378Z,61.88
2019-06-26T12:25:03.366Z,61.88
2019-06-26T12:26:03.374Z,61.88
2019-06-26T12:27:03.416Z,61.88
2019-06-26T12:28:03.363Z,61.88
2019-06-26T12:29:03.350Z,61.88
2019-06-26T12:30:03.348Z,61.88
2019-06-26T12:31:03.341Z,61.88
2019-06-26T12:32:03.342Z,61.88
2019-06-26T12:33:03.877Z,61.88
2019-06-26T12:34:03.330Z,61.88
2019-06-26T12:35:03.334Z,61.88
2019-06-26T12:36:03.327Z,61.88
2019-06-26T12:37:03.313Z,61.88
2019-06-26T12:38:03.336Z,56.25
2019-06-26T12:39:03.312Z,56.25
2019-06-26T12:40:03.300Z,56.25
2019-06-26T12:41:03.297Z,56.25
2019-06-26T12:42:03.288Z,61.88
2019-06-26T12:43:03.303Z,61.88
2019-06-26T12:44:03.292Z,61.88
2019-06-26T12:45:03.302Z,61.88
2019-06-26T12:46:03.281Z,61.88
2019-06-26T12:47:03.276Z,67.50
2019-06-26T12:48:03.277Z,61.88
2019-06-26T12:49:03.259Z,61.88
2019-06-26T12:50:03.257Z,61.88
2019-06-26T12:51:03.249Z,56.25
2019-06-26T12:52:03.254Z,56.25
2019-06-26T12:53:03.250Z,61.88
2019-06-26T12:54:03.236Z,56.25
2019-06-26T12:55:03.234Z,56.25
2019-06-26T12:56:03.234Z,61.88
2019-06-26T12:57:03.230Z,67.50
2019-06-26T12:58:13.627Z,61.88
2019-06-26T12:59:03.216Z,61.88
2019-06-26T13:00:03.242Z,56.25